Time;durP1;ratioP1;P1;durP2;ratioP2;P2;SDS_P1;SDS_P2;PMS_P1;PMS_P2;Temp;Humidity;BMP_temperature;BMP_pressure;BME280_temperature;BME280_humidity;BME280_pressure;Samples;Min_cycle;Max_cycle;Signal;HPM_P1;HPM_P2
2022/07/23 00:01:33;;;;;;;6.87;5.30;;;26.40;62.80;;;;;;4992123;28;20473;-71
2022/07/23 00:04:00;;;;;;;6.13;5.53;;;26.40;62.80;;;;;;4991784;28;20896;-67
2022/07/23 00:06:25;;;;;;;5.97;5.38;;;26.40;62.80;;;;;;4990933;28;20425;-67
2022/07/23 00:08:52;;;;;;;5.97;5.47;;;26.40;62.80;;;;;;4992125;28;20888;-67
2022/07/23 00:11:18;;;;;;;6.25;5.65;;;26.40;62.80;;;;;;4992094;28;20386;-68
2022/07/23 00:13:44;;;;;;;5.60;5.10;;;26.40;62.80;;;;;;4990857;28;21020;-67
2022/07/23 00:16:10;;;;;;;6.13;5.53;;;26.40;62.70;;;;;;4990105;28;20423;-67
2022/07/23 00:18:36;;;;;;;5.60;5.10;;;26.40;62.80;;;;;;4991941;28;20419;-68
2022/07/23 00:21:02;;;;;;;5.90;5.35;;;26.40;62.80;;;;;;4992015;28;20437;-67
2022/07/23 00:23:28;;;;;;;5.97;5.47;;;26.40;62.80;;;;;;4992006;28;20394;-68
2022/07/23 00:25:54;;;;;;;5.35;4.90;;;26.40;62.90;;;;;;4991590;28;20405;-67
2022/07/23 00:28:20;;;;;;;5.30;4.80;;;26.30;62.80;;;;;;4991409;28;20481;-67
2022/07/23 00:30:46;;;;;;;5.23;4.83;;;26.30;62.80;;;;;;4990555;28;20478;-68
2022/07/23 00:33:12;;;;;;;5.28;4.78;;;26.30;62.80;;;;;;4991694;28;20390;-67
2022/07/23 00:35:40;;;;;;;5.53;5.03;;;26.30;62.80;;;;;;4991312;28;20422;-67
2022/07/23 00:38:09;;;;;;;5.55;5.05;;;26.30;62.90;;;;;;4991105;28;20405;-67
2022/07/23 00:40:35;;;;;;;5.60;5.10;;;26.30;62.90;;;;;;4990231;28;20403;-68
2022/07/23 00:43:00;;;;;;;5.88;5.28;;;26.30;62.80;;;;;;4991559;28;20395;-67
2022/07/23 00:45:26;;;;;;;5.50;5.00;;;26.30;62.90;;;;;;4990228;28;20407;-67
2022/07/23 00:47:52;;;;;;;5.57;5.07;;;26.30;62.90;;;;;;4991461;28;20391;-68
2022/07/23 00:50:18;;;;;;;5.88;5.35;;;26.30;62.80;;;;;;4990596;28;20421;-68
2022/07/23 00:52:44;;;;;;;5.55;5.05;;;26.30;62.80;;;;;;4991037;28;20395;-67
2022/07/23 00:55:11;;;;;;;5.38;4.88;;;26.30;62.90;;;;;;4991176;28;20900;-68
2022/07/23 00:57:38;;;;;;;5.30;4.80;;;26.30;62.80;;;;;;4991288;28;20410;-68
2022/07/23 01:00:06;;;;;;;5.10;4.60;;;26.30;62.80;;;;;;4988324;28;20386;-68
2022/07/23 01:02:32;;;;;;;4.90;4.50;;;26.30;62.90;;;;;;4990942;28;20476;-67
2022/07/23 01:04:58;;;;;;;4.93;4.47;;;26.30;62.90;;;;;;4991002;28;20485;-67
2022/07/23 01:07:24;;;;;;;5.05;4.32;;;26.20;62.90;;;;;;4991086;28;20397;-67
2022/07/23 01:09:51;;;;;;;5.00;4.50;;;26.20;62.90;;;;;;4991034;28;20406;-67
2022/07/23 01:12:17;;;;;;;5.13;4.63;;;26.20;62.90;;;;;;4990431;28;20394;-67
2022/07/23 01:14:43;;;;;;;5.05;4.55;;;26.20;62.80;;;;;;4990645;28;20780;-67
2022/07/23 01:17:08;;;;;;;4.67;4.27;;;26.20;62.80;;;;;;4990847;28;20399;-67
2022/07/23 01:19:34;;;;;;;4.67;4.27;;;26.20;62.80;;;;;;4990700;28;20443;-68
2022/07/23 01:22:02;;;;;;;4.97;4.47;;;26.20;62.80;;;;;;4990440;28;20430;-67
2022/07/23 01:24:28;;;;;;;4.90;4.50;;;26.20;62.70;;;;;;4990682;28;20480;-67
2022/07/23 01:26:53;;;;;;;4.70;4.30;;;26.20;62.70;;;;;;4989435;28;20564;-67
2022/07/23 01:29:20;;;;;;;4.60;4.20;;;26.20;62.80;;;;;;4990682;28;20895;-67
2022/07/23 01:31:47;;;;;;;4.53;4.13;;;26.20;62.70;;;;;;4990857;28;20421;-70
2022/07/23 01:34:12;;;;;;;4.57;4.18;;;26.20;62.70;;;;;;4990224;28;20391;-66
2022/07/23 01:36:38;;;;;;;4.80;4.40;;;26.20;62.70;;;;;;4990215;28;20441;-67
2022/07/23 01:39:05;;;;;;;4.53;4.13;;;26.20;62.70;;;;;;4990677;28;20398;-71
2022/07/23 01:41:31;;;;;;;4.90;4.50;;;26.20;62.60;;;;;;4990654;28;20398;-67
2022/07/23 01:43:57;;;;;;;4.57;4.18;;;26.20;62.60;;;;;;4990547;28;20390;-69
2022/07/23 01:46:22;;;;;;;4.80;4.30;;;26.20;62.60;;;;;;4987701;28;20905;-67
2022/07/23 01:48:48;;;;;;;4.63;4.22;;;26.20;62.60;;;;;;4990652;28;20473;-69
2022/07/23 01:51:14;;;;;;;4.73;4.33;;;26.20;62.70;;;;;;4990547;28;20391;-67
2022/07/23 01:53:40;;;;;;;4.65;4.25;;;26.20;62.60;;;;;;4990466;28;20397;-67
2022/07/23 01:56:06;;;;;;;4.87;4.47;;;26.20;62.60;;;;;;4989870;28;20426;-67
2022/07/23 01:58:32;;;;;;;4.60;4.20;;;26.20;62.60;;;;;;4990394;28;20405;-67
2022/07/23 02:00:57;;;;;;;4.53;4.13;;;26.20;62.60;;;;;;4990450;28;20405;-67
2022/07/23 02:03:23;;;;;;;4.40;4.00;;;26.20;62.60;;;;;;4990705;28;20473;-68
2022/07/23 02:05:49;;;;;;;4.75;4.35;;;26.10;62.60;;;;;;4989975;28;20441;-68
2022/07/23 02:08:15;;;;;;;4.28;3.88;;;26.10;62.60;;;;;;4989504;28;20394;-67
2022/07/23 02:10:41;;;;;;;4.63;4.22;;;26.10;62.60;;;;;;4990087;28;20473;-68
2022/07/23 02:13:07;;;;;;;4.60;4.20;;;26.10;62.60;;;;;;4990448;28;20390;-68
2022/07/23 02:15:33;;;;;;;4.65;4.25;;;26.10;62.60;;;;;;4990344;28;20430;-67
2022/07/23 02:17:58;;;;;;;4.60;4.20;;;26.10;62.60;;;;;;4989956;28;20387;-67
2022/07/23 02:20:24;;;;;;;4.50;4.10;;;26.10;62.70;;;;;;4989695;28;20914;-68
2022/07/23 02:22:50;;;;;;;4.43;4.03;;;26.10;62.60;;;;;;4990184;28;20923;-67
2022/07/23 02:25:16;;;;;;;4.20;3.90;;;26.10;62.70;;;;;;4990210;28;20394;-68
2022/07/23 02:27:41;;;;;;;4.63;4.23;;;26.10;62.60;;;;;;4988661;28;20504;-67
2022/07/23 02:30:08;;;;;;;4.30;3.90;;;26.10;62.60;;;;;;4990930;28;20398;-68
2022/07/23 02:32:34;;;;;;;4.65;4.25;;;26.00;62.50;;;;;;4993720;28;20395;-67
2022/07/23 02:35:00;;;;;;;4.63;4.22;;;26.10;62.60;;;;;;4993515;28;20429;-68
2022/07/23 02:37:26;;;;;;;4.43;4.07;;;26.10;62.60;;;;;;4993557;28;20386;-68
2022/07/23 02:39:51;;;;;;;4.60;4.20;;;26.10;62.60;;;;;;4993850;28;20402;-67
2022/07/23 02:42:17;;;;;;;4.60;4.20;;;26.10;62.60;;;;;;4993300;28;20557;-69
2022/07/23 02:44:43;;;;;;;4.28;3.88;;;26.10;62.60;;;;;;4993689;28;20398;-67
2022/07/23 02:47:08;;;;;;;4.50;4.10;;;26.10;62.60;;;;;;4993623;28;20880;-68
2022/07/23 02:49:34;;;;;;;4.50;4.10;;;26.10;62.60;;;;;;4993553;28;20398;-67
2022/07/23 02:52:00;;;;;;;4.40;3.90;;;26.00;62.50;;;;;;4993373;28;20394;-67
2022/07/23 02:54:26;;;;;;;4.47;4.07;;;26.00;62.50;;;;;;4993069;28;21060;-71
2022/07/23 02:56:52;;;;;;;4.40;4.10;;;26.00;62.60;;;;;;4993466;28;20398;-67
2022/07/23 02:59:18;;;;;;;4.20;3.88;;;26.00;62.50;;;;;;4993241;28;20390;-67
2022/07/23 03:01:44;;;;;;;4.27;3.97;;;26.00;62.60;;;;;;4993363;28;20402;-67
2022/07/23 03:04:10;;;;;;;4.20;3.80;;;26.00;62.60;;;;;;4992630;28;20394;-67
2022/07/23 03:06:36;;;;;;;4.22;3.50;;;26.10;62.70;;;;;;4993421;28;20398;-67
2022/07/23 03:09:03;;;;;;;4.30;3.90;;;26.00;62.60;;;;;;4993190;28;20506;-68
2022/07/23 03:11:29;;;;;;;4.22;3.78;;;26.00;62.60;;;;;;4988199;28;20902;-67
2022/07/23 03:13:54;;;;;;;4.40;4.00;;;26.00;62.60;;;;;;4994446;28;20410;-67
2022/07/23 03:16:20;;;;;;;4.45;4.05;;;26.00;62.60;;;;;;4992827;28;20418;-67
2022/07/23 03:18:46;;;;;;;4.40;4.00;;;26.00;62.60;;;;;;4995177;28;20474;-67
2022/07/23 03:21:11;;;;;;;4.50;4.10;;;26.00;62.60;;;;;;4994686;28;20395;-67
2022/07/23 03:23:37;;;;;;;4.63;4.22;;;26.00;62.60;;;;;;4994350;28;20395;-67
2022/07/23 03:26:03;;;;;;;4.60;4.20;;;26.00;62.60;;;;;;4993968;28;20988;-67
2022/07/23 03:28:28;;;;;;;4.60;4.20;;;26.00;62.60;;;;;;4994120;28;20394;-66
2022/07/23 03:30:54;;;;;;;4.87;4.47;;;26.00;62.60;;;;;;4994082;28;20892;-66
2022/07/23 03:33:21;;;;;;;4.57;4.18;;;26.00;62.60;;;;;;4994166;28;20903;-67
2022/07/23 03:35:47;;;;;;;4.60;4.20;;;26.00;62.50;;;;;;4992600;28;20415;-67
2022/07/23 03:38:13;;;;;;;4.95;4.55;;;26.00;62.70;;;;;;4993128;28;20395;-66
2022/07/23 03:40:39;;;;;;;4.57;4.18;;;26.00;62.50;;;;;;4992581;28;20395;-67
2022/07/23 03:43:04;;;;;;;4.93;4.43;;;26.00;62.50;;;;;;4994105;28;20514;-67
2022/07/23 03:45:30;;;;;;;5.13;4.55;;;25.90;62.40;;;;;;4992702;28;20398;-67
2022/07/23 03:47:56;;;;;;;5.00;4.60;;;26.00;62.50;;;;;;4993744;28;20405;-67
2022/07/23 03:50:22;;;;;;;5.15;4.70;;;25.90;62.40;;;;;;4993438;28;20399;-67
2022/07/23 03:52:48;;;;;;;5.22;4.75;;;26.00;62.50;;;;;;4993592;28;20914;-67
2022/07/23 03:55:13;;;;;;;4.60;4.20;;;26.00;62.50;;;;;;4992501;28;20476;-67
2022/07/23 03:57:39;;;;;;;4.90;4.50;;;26.00;62.50;;;;;;4992583;28;20738;-66
2022/07/23 04:00:09;;;;;;;4.90;4.50;;;25.90;62.30;;;;;;4993568;28;20468;-67
2022/07/23 04:02:34;;;;;;;4.70;4.30;;;26.00;62.40;;;;;;4993576;28;20456;-67
2022/07/23 04:05:00;;;;;;;5.40;4.90;;;25.90;62.30;;;;;;4991795;28;20398;-68
2022/07/23 04:07:26;;;;;;;5.20;4.80;;;25.90;62.30;;;;;;4991757;28;20395;-67
2022/07/23 04:09:52;;;;;;;5.05;4.55;;;25.90;62.30;;;;;;4991824;28;20397;-68
2022/07/23 04:12:18;;;;;;;5.30;4.80;;;25.90;62.30;;;;;;4992658;28;20776;-67
2022/07/23 04:14:44;;;;;;;5.30;4.80;;;25.90;62.30;;;;;;4993326;28;20430;-67
2022/07/23 04:17:09;;;;;;;5.00;4.60;;;25.90;62.30;;;;;;4993441;28;20827;-70
2022/07/23 04:19:39;;;;;;;5.13;4.63;;;25.90;62.30;;;;;;4993081;28;20398;-68
2022/07/23 04:22:05;;;;;;;5.03;4.53;;;25.90;62.30;;;;;;4991716;28;20402;-67
2022/07/23 04:24:31;;;;;;;5.10;4.60;;;25.90;62.30;;;;;;4991150;28;20398;-67
2022/07/23 04:26:57;;;;;;;4.90;4.50;;;25.90;62.30;;;;;;4992926;28;20480;-67
2022/07/23 04:29:23;;;;;;;5.10;4.65;;;25.90;62.30;;;;;;4991784;28;20406;-67
2022/07/23 04:31:49;;;;;;;5.15;4.65;;;25.90;62.30;;;;;;4993108;28;20891;-72
2022/07/23 04:34:15;;;;;;;5.47;4.97;;;25.90;62.30;;;;;;4992607;28;20489;-67
2022/07/23 04:36:40;;;;;;;4.95;4.45;;;25.90;62.30;;;;;;4992787;28;20403;-67
2022/07/23 04:39:06;;;;;;;5.10;4.63;;;25.90;62.30;;;;;;4991563;28;20537;-69
2022/07/23 04:41:32;;;;;;;4.87;4.47;;;25.90;62.30;;;;;;4992780;28;20413;-67
2022/07/23 04:43:58;;;;;;;4.90;4.50;;;25.90;62.30;;;;;;4992964;28;20963;-68
2022/07/23 04:46:23;;;;;;;4.93;4.53;;;25.90;62.30;;;;;;4991881;28;20401;-67
2022/07/23 04:48:49;;;;;;;5.18;4.68;;;25.90;62.30;;;;;;4992788;28;20430;-68
2022/07/23 04:51:14;;;;;;;5.05;4.57;;;25.90;62.30;;;;;;4992146;28;20395;-67
2022/07/23 04:53:40;;;;;;;5.60;5.10;;;25.80;62.20;;;;;;4991808;28;20912;-72
2022/07/23 04:56:06;;;;;;;5.03;4.53;;;25.80;62.20;;;;;;4991143;28;20916;-67
2022/07/23 04:58:32;;;;;;;4.90;4.47;;;25.80;62.30;;;;;;4990911;28;20414;-67
2022/07/23 05:00:58;;;;;;;5.90;4.67;;;25.80;62.30;;;;;;4991350;28;20395;-67
2022/07/23 05:03:23;;;;;;;5.80;4.97;;;25.80;61.90;;;;;;4991138;28;20419;-67
2022/07/23 05:05:49;;;;;;;5.20;4.70;;;25.80;62.00;;;;;;4991185;28;20403;-67
2022/07/23 05:08:15;;;;;;;8.48;5.40;;;25.80;61.90;;;;;;4989744;28;20430;-67
2022/07/23 05:10:41;;;;;;;6.67;5.30;;;25.80;61.90;;;;;;4992435;28;20493;-67
2022/07/23 05:13:07;;;;;;;10.20;5.72;;;25.80;61.50;;;;;;4987295;28;20423;-68
2022/07/23 05:15:32;;;;;;;9.63;5.97;;;25.80;61.10;;;;;;4991215;28;20458;-68
2022/07/23 05:17:58;;;;;;;10.68;5.95;;;25.80;61.20;;;;;;4990315;28;20410;-67
2022/07/23 05:20:23;;;;;;;10.30;5.93;;;25.80;61.30;;;;;;4991579;28;20387;-68
2022/07/23 05:22:49;;;;;;;10.97;5.63;;;25.80;62.00;;;;;;4992255;28;20477;-68
2022/07/23 05:25:15;;;;;;;9.27;6.80;;;25.80;61.60;;;;;;4989422;28;20469;-68
2022/07/23 05:27:40;;;;;;;8.02;6.10;;;25.80;63.20;;;;;;4988214;28;20431;-68
2022/07/23 05:30:07;;;;;;;8.48;5.82;;;25.90;62.80;;;;;;4990458;28;20390;-69
2022/07/23 05:32:32;;;;;;;9.38;5.40;;;25.90;62.40;;;;;;4988760;28;20892;-69
2022/07/23 05:34:58;;;;;;;9.77;5.40;;;26.00;63.00;;;;;;4990467;28;20426;-70
2022/07/23 05:37:24;;;;;;;6.90;5.38;;;26.00;62.30;;;;;;4990567;28;20872;-69
2022/07/23 05:39:51;;;;;;;11.00;5.40;;;26.00;62.20;;;;;;4991210;28;20714;-68
2022/07/23 05:42:16;;;;;;;6.70;5.50;;;26.00;62.60;;;;;;4986487;28;20434;-68
2022/07/23 05:44:42;;;;;;;7.73;5.60;;;26.00;62.20;;;;;;4990531;28;20849;-69
2022/07/23 05:47:08;;;;;;;9.68;5.72;;;26.00;61.50;;;;;;4990731;28;20393;-69
2022/07/23 05:49:35;;;;;;;10.97;5.67;;;26.00;61.80;;;;;;4990692;28;20392;-70
2022/07/23 05:52:05;;;;;;;10.18;5.78;;;25.90;62.20;;;;;;4989409;28;20406;-69
2022/07/23 05:54:33;;;;;;;7.47;5.55;;;25.90;61.60;;;;;;4990309;28;20395;-70
2022/07/23 05:56:59;;;;;;;7.68;5.40;;;25.90;61.00;;;;;;4990891;28;20402;-70
2022/07/23 05:59:25;;;;;;;7.93;5.68;;;25.90;61.30;;;;;;4989452;28;20782;-68
2022/07/23 06:01:51;;;;;;;6.63;5.77;;;25.90;61.20;;;;;;4988297;28;20496;-68
2022/07/23 06:04:16;;;;;;;8.05;5.88;;;25.90;61.40;;;;;;4988958;28;20395;-69
2022/07/23 06:06:42;;;;;;;7.75;5.10;;;25.90;61.40;;;;;;4995027;28;20772;-70
2022/07/23 06:09:08;;;;;;;5.90;5.20;;;25.90;61.30;;;;;;4993981;28;20747;-69
2022/07/23 06:11:33;;;;;;;6.88;5.45;;;25.90;61.20;;;;;;4994180;28;20441;-71
2022/07/23 06:13:59;;;;;;;7.97;5.30;;;25.90;61.50;;;;;;4994417;28;20448;-69
2022/07/23 06:16:25;;;;;;;8.50;5.50;;;25.90;61.20;;;;;;4993821;28;20418;-69
2022/07/23 06:18:50;;;;;;;7.30;5.43;;;25.90;61.60;;;;;;4994357;28;20394;-68
2022/07/23 06:21:16;;;;;;;7.50;5.30;;;25.90;62.30;;;;;;4994117;28;20394;-68
2022/07/23 06:23:41;;;;;;;8.30;5.53;;;25.90;62.80;;;;;;4992867;28;20398;-70
2022/07/23 06:26:07;;;;;;;6.93;4.90;;;26.00;63.10;;;;;;4993534;28;20469;-69
2022/07/23 06:28:33;;;;;;;7.35;5.10;;;25.90;61.90;;;;;;4993626;28;20437;-68
2022/07/23 06:30:58;;;;;;;9.93;5.00;;;25.90;61.90;;;;;;4994206;28;20395;-68
2022/07/23 06:33:24;;;;;;;11.67;5.93;;;25.90;61.70;;;;;;4993920;28;20398;-68
2022/07/23 06:35:49;;;;;;;12.27;5.80;;;25.80;61.50;;;;;;4993943;28;20932;-69
2022/07/23 06:38:15;;;;;;;12.77;5.22;;;25.80;61.50;;;;;;4993893;28;20951;-68
2022/07/23 06:40:41;;;;;;;10.63;5.50;;;25.80;61.40;;;;;;4993718;28;20405;-70
2022/07/23 06:43:06;;;;;;;8.10;5.03;;;25.80;61.60;;;;;;4993839;28;20398;-68
2022/07/23 06:45:32;;;;;;;9.88;5.28;;;25.80;61.70;;;;;;4993972;28;21220;-68
2022/07/23 06:47:58;;;;;;;8.90;5.10;;;25.80;61.80;;;;;;4993897;28;20884;-68
2022/07/23 06:50:23;;;;;;;7.50;5.30;;;25.80;61.80;;;;;;4993353;28;20464;-69
2022/07/23 06:52:49;;;;;;;7.90;5.07;;;25.80;61.80;;;;;;4993624;28;20391;-68
2022/07/23 06:55:15;;;;;;;7.20;5.17;;;25.80;61.80;;;;;;4993460;28;20418;-68
2022/07/23 06:57:40;;;;;;;8.10;5.13;;;25.80;61.90;;;;;;4993626;28;20449;-69
2022/07/23 07:00:07;;;;;;;7.75;5.15;;;25.80;61.80;;;;;;4993570;28;20391;-68
2022/07/23 07:02:32;;;;;;;6.43;4.60;;;25.80;61.90;;;;;;4993219;28;20402;-68
2022/07/23 07:04:58;;;;;;;6.40;4.90;;;25.80;61.90;;;;;;4992276;28;20456;-68
2022/07/23 07:07:23;;;;;;;5.97;5.00;;;25.80;61.90;;;;;;4991731;28;20888;-67
2022/07/23 07:09:49;;;;;;;5.87;4.90;;;25.80;61.90;;;;;;4993613;28;20405;-69
2022/07/23 07:12:15;;;;;;;5.80;4.88;;;25.80;61.90;;;;;;4991834;28;20417;-68
2022/07/23 07:14:40;;;;;;;7.60;5.20;;;25.80;61.90;;;;;;4993062;28;20533;-67
2022/07/23 07:17:06;;;;;;;5.97;5.13;;;25.80;61.90;;;;;;4992890;28;20478;-68
2022/07/23 07:19:32;;;;;;;6.40;5.15;;;25.80;61.90;;;;;;4993467;28;20386;-69
2022/07/23 07:21:58;;;;;;;6.38;5.10;;;25.80;61.90;;;;;;4992107;28;20923;-68
2022/07/23 07:24:23;;;;;;;6.03;5.00;;;25.80;61.90;;;;;;4992688;28;20434;-68
2022/07/23 07:26:49;;;;;;;5.20;4.70;;;25.80;61.90;;;;;;4992959;28;20422;-68
2022/07/23 07:29:15;;;;;;;5.70;4.97;;;25.80;61.90;;;;;;4993078;28;20391;-67
2022/07/23 07:31:40;;;;;;;5.40;4.90;;;25.80;61.90;;;;;;4993055;28;20410;-68
2022/07/23 07:34:06;;;;;;;5.83;4.67;;;25.80;61.90;;;;;;4992953;28;20395;-69
2022/07/23 07:36:32;;;;;;;6.15;5.03;;;25.80;62.00;;;;;;4992313;28;20430;-68
2022/07/23 07:38:58;;;;;;;5.23;4.73;;;25.80;61.90;;;;;;4992865;28;20403;-70
2022/07/23 07:41:25;;;;;;;5.40;4.90;;;25.80;61.90;;;;;;4992683;28;20872;-69
2022/07/23 07:43:51;;;;;;;6.25;4.88;;;25.80;61.90;;;;;;4990322;28;20800;-68
2022/07/23 07:46:17;;;;;;;5.70;4.82;;;25.70;61.90;;;;;;4992483;28;20421;-68
2022/07/23 07:48:43;;;;;;;5.67;4.73;;;25.70;61.90;;;;;;4992529;28;20799;-69
2022/07/23 07:51:08;;;;;;;6.40;5.07;;;25.70;61.90;;;;;;4992616;28;20479;-68
2022/07/23 07:53:34;;;;;;;5.40;4.75;;;25.80;62.00;;;;;;4992475;28;20422;-67
2022/07/23 07:56:00;;;;;;;7.63;4.93;;;25.70;61.90;;;;;;4991126;28;20705;-68
2022/07/23 07:58:25;;;;;;;5.53;4.60;;;25.70;63.00;;;;;;4991640;28;20873;-68
2022/07/23 08:00:51;;;;;;;6.10;5.00;;;25.80;62.40;;;;;;4992382;28;20386;-68
2022/07/23 08:03:17;;;;;;;7.80;5.32;;;25.80;63.00;;;;;;4992630;28;20383;-69
2022/07/23 08:05:43;;;;;;;8.67;5.20;;;25.80;63.40;;;;;;4992276;28;20405;-69
2022/07/23 08:08:09;;;;;;;6.82;5.40;;;25.90;63.80;;;;;;4992381;28;20401;-67
2022/07/23 08:10:35;;;;;;;8.98;5.55;;;25.90;63.80;;;;;;4991945;28;20828;-70
2022/07/23 08:13:01;;;;;;;19.98;8.00;;;25.90;62.20;;;;;;4992206;28;20436;-70
2022/07/23 08:15:29;;;;;;;14.27;7.40;;;25.90;62.20;;;;;;4991883;28;20422;-67
2022/07/23 08:17:55;;;;;;;12.20;6.80;;;25.90;62.10;;;;;;4990939;28;20398;-68
2022/07/23 08:20:22;;;;;;;11.23;6.70;;;25.90;62.00;;;;;;4991616;28;20445;-69
2022/07/23 08:22:52;;;;;;;9.23;6.60;;;25.90;62.10;;;;;;4991302;28;20387;-68
2022/07/23 08:25:23;;;;;;;8.90;6.60;;;25.80;62.10;;;;;;4990413;28;20956;-67
2022/07/23 08:27:50;;;;;;;9.52;6.43;;;25.80;61.80;;;;;;4989665;28;20926;-67
2022/07/23 08:30:16;;;;;;;9.65;6.35;;;25.80;62.00;;;;;;4991970;28;20473;-67
2022/07/23 08:33:00;;;;;;;9.97;6.27;;;25.80;62.10;;;;;;4991394;28;20494;-67
2022/07/23 08:35:31;;;;;;;10.27;6.60;;;25.80;61.90;;;;;;4990714;28;21125;-67
2022/07/23 08:37:58;;;;;;;9.57;6.45;;;25.80;62.70;;;;;;4991611;28;20381;-68
2022/07/23 08:40:26;;;;;;;7.88;6.30;;;25.90;62.30;;;;;;4990182;28;20434;-68
2022/07/23 08:42:52;;;;;;;8.52;6.78;;;25.90;62.00;;;;;;4987997;28;20478;-67
2022/07/23 08:45:20;;;;;;;7.20;6.50;;;25.90;61.60;;;;;;4991463;28;20386;-68
2022/07/23 08:47:49;;;;;;;8.05;6.40;;;25.80;61.50;;;;;;4991561;28;20818;-67
2022/07/23 08:50:15;;;;;;;11.00;6.50;;;25.80;61.30;;;;;;4991561;28;20386;-69
2022/07/23 08:52:41;;;;;;;8.13;6.45;;;25.80;61.70;;;;;;4991088;28;20409;-67
2022/07/23 08:55:08;;;;;;;8.02;6.30;;;25.80;61.70;;;;;;4991069;28;20418;-69
2022/07/23 08:57:34;;;;;;;8.27;6.45;;;25.80;61.80;;;;;;4991291;28;20394;-69
2022/07/23 08:59:59;;;;;;;7.60;6.60;;;25.80;61.90;;;;;;4991405;28;20461;-69
2022/07/23 09:02:25;;;;;;;7.60;6.33;;;25.80;61.70;;;;;;4991345;28;20402;-68
2022/07/23 09:04:51;;;;;;;8.30;6.50;;;25.80;61.80;;;;;;4985898;28;20395;-69
2022/07/23 09:07:16;;;;;;;6.95;6.25;;;25.80;61.80;;;;;;4991057;28;20386;-68
2022/07/23 09:09:42;;;;;;;7.57;6.57;;;25.80;61.80;;;;;;4991407;28;20516;-69
2022/07/23 09:12:10;;;;;;;7.03;6.32;;;25.80;61.70;;;;;;4989776;28;20395;-67
2022/07/23 09:14:40;;;;;;;6.68;5.50;;;25.80;61.70;;;;;;4989907;28;20387;-67
2022/07/23 09:17:14;;;;;;;6.80;6.00;;;25.80;61.70;;;;;;4990948;28;20472;-67
2022/07/23 09:19:41;;;;;;;6.53;5.93;;;25.80;61.60;;;;;;4991138;28;20456;-68
2022/07/23 09:22:21;;;;;;;6.03;5.43;;;25.80;61.60;;;;;;4991006;28;20489;-68
2022/07/23 09:25:14;;;;;;;6.70;5.97;;;25.80;61.50;;;;;;4989306;28;20410;-68
2022/07/23 09:28:02;;;;;;;9.00;6.10;;;25.80;61.40;;;;;;4987970;28;20407;-70
2022/07/23 09:30:30;;;;;;;10.23;6.10;;;25.80;61.80;;;;;;4988471;28;20405;-68
2022/07/23 09:33:12;;;;;;;18.88;6.20;;;25.80;62.30;;;;;;4991026;28;20395;-70
2022/07/23 09:35:51;;;;;;;16.10;6.10;;;25.80;62.40;;;;;;4991586;28;20410;-69
2022/07/23 09:38:19;;;;;;;8.70;5.85;;;25.80;62.50;;;;;;4990390;28;20405;-67
2022/07/23 09:40:46;;;;;;;10.70;5.90;;;25.90;62.60;;;;;;4991191;28;20387;-69
2022/07/23 09:43:25;;;;;;;9.30;5.70;;;25.90;62.40;;;;;;4991814;28;20395;-66
2022/07/23 09:45:50;;;;;;;10.07;5.60;;;25.90;62.80;;;;;;4990565;28;20740;-68
2022/07/23 09:48:17;;;;;;;8.82;5.40;;;25.90;63.00;;;;;;4991624;28;20407;-68
2022/07/23 09:50:44;;;;;;;19.77;6.13;;;25.90;62.20;;;;;;4991049;28;20405;-68
2022/07/23 09:53:26;;;;;;;9.73;5.28;;;26.00;63.30;;;;;;4992590;28;20399;-66
2022/07/23 09:55:55;;;;;;;8.35;5.75;;;26.00;63.20;;;;;;4990958;28;20506;-69
2022/07/23 09:58:22;;;;;;;10.23;5.63;;;26.00;62.90;;;;;;4987719;28;20391;-67
2022/07/23 10:00:49;;;;;;;13.75;6.30;;;26.00;63.40;;;;;;4992218;28;20398;-67
2022/07/23 10:03:17;;;;;;;12.13;6.50;;;26.10;63.20;;;;;;4974049;28;20794;-69
2022/07/23 10:05:44;;;;;;;16.67;7.00;;;26.20;63.60;;;;;;4974062;28;21100;-69
2022/07/23 10:08:12;;;;;;;15.85;6.55;;;26.20;63.20;;;;;;4975567;28;20889;-69
2022/07/23 10:10:41;;;;;;;15.02;6.90;;;26.20;63.10;;;;;;4991740;28;20394;-68
2022/07/23 10:15:41;;;;;;;9.13;6.20;;;26.10;63.10;;;;;;4992715;28;20428;-68
2022/07/23 10:18:09;;;;;;;10.05;6.20;;;26.10;62.70;;;;;;4992796;28;20482;-69
2022/07/23 10:20:35;;;;;;;14.55;6.25;;;26.10;63.10;;;;;;4991734;28;20397;-68
2022/07/23 10:23:30;;;;;;;13.30;5.90;;;26.10;63.50;;;;;;4993092;28;20481;-69
2022/07/23 10:26:11;;;;;;;10.13;5.50;;;26.10;63.50;;;;;;4990186;28;20430;-68
2022/07/23 10:29:10;;;;;;;10.18;5.80;;;26.10;63.60;;;;;;4991670;28;20399;-69
2022/07/23 10:32:04;;;;;;;9.25;5.65;;;26.10;63.80;;;;;;4991246;28;20394;-69
2022/07/23 10:34:53;;;;;;;9.45;6.00;;;26.10;63.70;;;;;;4992234;28;20394;-69
2022/07/23 10:37:40;;;;;;;9.77;5.95;;;26.10;63.80;;;;;;4992020;28;20749;-68
2022/07/23 10:40:22;;;;;;;14.75;6.13;;;26.10;64.30;;;;;;4992584;28;20386;-67
2022/07/23 10:42:51;;;;;;;16.13;6.07;;;26.10;64.20;;;;;;4991657;28;20430;-67
2022/07/23 10:45:26;;;;;;;15.98;6.32;;;26.10;64.30;;;;;;4992308;28;20399;-67
2022/07/23 10:47:51;;;;;;;11.00;5.73;;;26.10;64.50;;;;;;4991960;28;20433;-67
2022/07/23 10:50:30;;;;;;;10.48;5.50;;;26.10;64.30;;;;;;4992091;28;20488;-66
2022/07/23 10:53:18;;;;;;;14.35;5.95;;;26.10;64.10;;;;;;4992997;28;20401;-67
2022/07/23 10:55:52;;;;;;;8.85;5.32;;;26.10;64.10;;;;;;4991045;28;20422;-68
2022/07/23 10:58:42;;;;;;;12.70;5.50;;;26.10;63.90;;;;;;4995902;28;20391;-68
2022/07/23 11:01:39;;;;;;;14.18;5.55;;;26.10;63.80;;;;;;4995199;28;20386;-67
2022/07/23 11:04:07;;;;;;;13.00;5.28;;;26.10;63.50;;;;;;4994977;28;20445;-67
2022/07/23 11:07:02;;;;;;;11.82;5.50;;;26.10;63.40;;;;;;4994779;28;20394;-69
2022/07/23 11:09:38;;;;;;;10.38;5.60;;;26.10;63.60;;;;;;4981121;28;20394;-67
2022/07/23 11:12:24;;;;;;;12.38;5.82;;;26.10;63.50;;;;;;4994828;28;20456;-69
2022/07/23 11:15:13;;;;;;;9.45;5.43;;;26.10;64.10;;;;;;4994210;28;20425;-69
2022/07/23 11:17:42;;;;;;;9.55;5.47;;;26.20;64.80;;;;;;4995460;28;20391;-67
2022/07/23 11:20:12;;;;;;;8.73;5.50;;;26.20;64.30;;;;;;4994735;28;20393;-67
2022/07/23 11:22:38;;;;;;;9.45;5.60;;;26.20;64.60;;;;;;4989011;28;20434;-67
2022/07/23 11:25:05;;;;;;;9.68;5.65;;;26.20;64.40;;;;;;4991899;28;20382;-68
2022/07/23 11:27:45;;;;;;;9.93;5.88;;;26.20;64.60;;;;;;4992984;28;20900;-67
2022/07/23 11:30:31;;;;;;;10.18;5.90;;;26.20;63.80;;;;;;4993272;28;20399;-69
2022/07/23 11:33:09;;;;;;;11.55;5.43;;;26.20;64.30;;;;;;4992824;28;20414;-69
2022/07/23 11:35:36;;;;;;;26.95;11.27;;;26.20;64.10;;;;;;4994483;28;20411;-67
2022/07/23 11:38:22;;;;;;;21.60;8.52;;;26.20;65.20;;;;;;4994692;28;20446;-69
2022/07/23 11:40:54;;;;;;;16.77;7.18;;;26.20;65.90;;;;;;4992560;28;20386;-69
2022/07/23 11:43:21;;;;;;;16.88;6.88;;;26.20;66.40;;;;;;4994462;28;20402;-68
2022/07/23 11:45:50;;;;;;;15.05;6.50;;;26.20;65.80;;;;;;4993345;28;20841;-69
2022/07/23 11:48:24;;;;;;;61.83;10.40;;;26.20;65.60;;;;;;4994424;28;20402;-67
2022/07/23 11:50:51;;;;;;;33.47;7.77;;;26.20;66.90;;;;;;4993698;28;20488;-68
2022/07/23 11:53:23;;;;;;;35.22;7.85;;;26.20;66.00;;;;;;4993880;28;20399;-68
2022/07/23 11:55:52;;;;;;;20.90;6.95;;;26.20;65.30;;;;;;4993581;28;20981;-68
2022/07/23 11:58:18;;;;;;;22.02;7.45;;;26.20;65.30;;;;;;4992645;28;20403;-68
2022/07/23 12:00:44;;;;;;;23.52;8.45;;;26.20;64.90;;;;;;4992041;28;20394;-69
2022/07/23 12:03:10;;;;;;;15.65;7.95;;;26.20;66.20;;;;;;4991374;28;20533;-68
2022/07/23 12:05:37;;;;;;;14.57;6.70;;;26.20;65.30;;;;;;4987830;28;20410;-67
2022/07/23 12:08:05;;;;;;;14.85;6.82;;;26.20;65.70;;;;;;4984253;28;20411;-66
2022/07/23 12:10:35;;;;;;;15.45;6.75;;;26.20;65.50;;;;;;4984485;28;20894;-67
2022/07/23 12:13:07;;;;;;;17.13;6.90;;;26.20;65.50;;;;;;4987101;28;20389;-66
2022/07/23 12:15:39;;;;;;;17.73;6.83;;;26.20;66.00;;;;;;4987865;28;20510;-66
2022/07/23 12:18:07;;;;;;;16.02;6.28;;;26.20;66.60;;;;;;4987395;28;20391;-68
2022/07/23 12:20:36;;;;;;;12.85;6.38;;;26.20;66.00;;;;;;4987252;28;20398;-67
2022/07/23 12:23:04;;;;;;;15.02;7.00;;;26.20;66.30;;;;;;4988080;28;20389;-66
2022/07/23 12:25:36;;;;;;;13.20;6.43;;;26.20;66.50;;;;;;4988469;28;20937;-67
2022/07/23 12:28:13;;;;;;;16.75;7.25;;;26.20;65.90;;;;;;4989479;28;20418;-67
2022/07/23 12:30:42;;;;;;;19.05;8.73;;;26.20;66.20;;;;;;4993064;28;20399;-66
2022/07/23 12:33:11;;;;;;;17.17;8.70;;;26.20;65.60;;;;;;4994072;28;20412;-66
2022/07/23 12:35:45;;;;;;;10.75;6.72;;;26.30;66.10;;;;;;4987712;28;20449;-66
2022/07/23 12:38:13;;;;;;;13.30;7.22;;;26.30;65.80;;;;;;4980407;28;20415;-66
2022/07/23 12:40:48;;;;;;;13.45;7.38;;;26.30;65.60;;;;;;4981260;28;20884;-67
2022/07/23 12:43:25;;;;;;;14.75;7.45;;;26.30;65.90;;;;;;4985536;28;20491;-66
2022/07/23 12:46:06;;;;;;;16.70;11.23;;;26.30;65.50;;;;;;4985226;28;20394;-66
2022/07/23 12:48:36;;;;;;;14.00;8.10;;;26.30;67.90;;;;;;4984076;28;20915;-67
2022/07/23 12:51:03;;;;;;;13.68;8.32;;;26.40;67.30;;;;;;4971370;28;20492;-67